createdAt,value
2022-08-14T00:01:54.397Z,71.90
2022-08-14T00:04:35.280Z,73.03
2022-08-14T00:07:11.511Z,72.18
2022-08-14T00:09:55.741Z,71.71
2022-08-14T00:12:33.997Z,71.99
2022-08-14T00:15:22.794Z,72.53
2022-08-14T00:17:53.073Z,73.62
2022-08-14T00:20:31.027Z,72.93
2022-08-14T00:23:16.350Z,73.47
2022-08-14T00:25:54.052Z,73.87
2022-08-14T00:28:35.584Z,74.27
2022-08-14T00:31:05.604Z,74.11
2022-08-14T00:33:52.211Z,74.61
2022-08-14T00:36:36.386Z,74.93
2022-08-14T00:39:18.314Z,75.23
2022-08-14T00:41:47.002Z,75.12
2022-08-14T00:44:14.748Z,75.39
2022-08-14T00:46:49.472Z,75.36
2022-08-14T00:49:17.877Z,75.52
2022-08-14T00:51:48.295Z,75.89
2022-08-14T00:54:21.239Z,76.84
2022-08-14T00:56:55.615Z,76.47
2022-08-14T00:59:25.711Z,76.33
2022-08-14T01:01:56.204Z,77.18
2022-08-14T01:04:37.650Z,77.77
2022-08-14T01:07:11.820Z,77.99
2022-08-14T01:09:41.521Z,78.70
2022-08-14T01:12:09.361Z,78.64
2022-08-14T01:14:38.234Z,79.54
2022-08-14T01:17:08.764Z,80.29
2022-08-14T01:19:54.893Z,80.39
2022-08-14T01:22:51.284Z,80.87
2022-08-14T01:25:20.334Z,81.15
2022-08-14T01:27:57.316Z,80.43
2022-08-14T01:30:27.403Z,80.62
2022-08-14T01:32:54.510Z,80.33
2022-08-14T01:36:03.760Z,80.36
2022-08-14T01:38:10.341Z,81.00
2022-08-14T01:40:41.985Z,80.28
2022-08-14T01:43:18.953Z,81.42
2022-08-14T01:45:57.604Z,81.96
2022-08-14T01:48:37.476Z,82.47
2022-08-14T01:51:19.551Z,82.09
2022-08-14T01:53:54.686Z,82.40
2022-08-14T01:56:39.732Z,82.71
2022-08-14T01:59:20.921Z,82.94
2022-08-14T02:01:57.862Z,83.16
2022-08-14T02:04:55.006Z,83.12
2022-08-14T02:07:34.162Z,83.27
2022-08-14T02:10:07.060Z,83.38
2022-08-14T02:12:34.727Z,83.30
2022-08-14T02:15:03.045Z,83.13
2022-08-14T02:17:33.371Z,83.71
2022-08-14T02:20:00.969Z,83.77
2022-08-14T02:22:33.169Z,84.03
2022-08-14T02:25:01.489Z,84.10
2022-08-14T02:28:24.454Z,84.45
2022-08-14T02:30:16.483Z,84.77
2022-08-14T02:32:45.771Z,84.89
2022-08-14T02:35:21.958Z,84.52
2022-08-14T02:37:53.535Z,84.79
2022-08-14T02:40:32.530Z,85.32
2022-08-14T02:43:02.754Z,85.62
2022-08-14T02:45:38.615Z,86.20
2022-08-14T02:49:02.726Z,86.25
2022-08-14T02:51:01.296Z,86.09
2022-08-14T02:53:29.900Z,86.64
2022-08-14T02:56:30.319Z,87.12
2022-08-14T02:59:08.198Z,86.97
2022-08-14T03:01:43.803Z,86.95
2022-08-14T03:04:17.712Z,87.64
2022-08-14T03:06:57.877Z,87.79
2022-08-14T03:09:42.380Z,85.92
2022-08-14T03:12:31.518Z,83.74
2022-08-14T03:15:03.047Z,86.25
2022-08-14T03:17:32.076Z,87.33
2022-08-14T03:20:11.946Z,87.97
2022-08-14T03:22:42.140Z,88.29
2022-08-14T03:25:11.361Z,87.97
2022-08-14T03:27:47.779Z,88.01
2022-08-14T03:30:15.773Z,86.91
2022-08-14T03:32:51.470Z,85.80
2022-08-14T03:35:19.697Z,84.98
2022-08-14T03:39:10.905Z,84.88
2022-08-14T03:40:34.227Z,86.00
2022-08-14T03:43:05.607Z,86.21
2022-08-14T03:45:35.718Z,86.92
2022-08-14T03:48:30.237Z,87.04
2022-08-14T03:50:59.640Z,88.82
2022-08-14T03:53:28.621Z,89.92
2022-08-14T03:55:58.965Z,90.73
2022-08-14T03:58:36.260Z,91.09
2022-08-14T04:01:06.558Z,91.13
2022-08-14T04:03:37.211Z,92.23
2022-08-14T04:06:05.745Z,92.11
2022-08-14T04:08:37.430Z,91.97
2022-08-14T04:11:08.041Z,92.16
2022-08-14T04:13:42.564Z,91.26
2022-08-14T04:16:13.081Z,91.47
2022-08-14T04:18:45.733Z,92.24
2022-08-14T04:21:13.429Z,92.49
2022-08-14T04:23:42.709Z,92.64
2022-08-14T04:26:14.791Z,92.34
2022-08-14T04:29:07.484Z,92.28
2022-08-14T04:33:10.490Z,92.48
2022-08-14T04:34:24.012Z,92.35
2022-08-14T04:37:21.903Z,93.18
2022-08-14T04:40:08.809Z,93.01
2022-08-14T04:42:55.414Z,92.00
2022-08-14T04:45:24.893Z,92.32
2022-08-14T04:48:12.657Z,91.57
2022-08-14T04:50:53.973Z,91.75
2022-08-14T04:53:34.883Z,92.04
2022-08-14T04:56:03.798Z,92.59
2022-08-14T04:58:35.273Z,92.25
2022-08-14T05:01:22.144Z,91.63
2022-08-14T05:03:49.616Z,91.91
2022-08-14T05:06:38.273Z,92.36
2022-08-14T05:09:06.542Z,92.41
2022-08-14T05:11:36.639Z,92.33
2022-08-14T05:14:43.411Z,91.80
2022-08-14T05:16:52.495Z,91.31
2022-08-14T05:19:29.092Z,91.26
2022-08-14T05:22:17.081Z,90.98
2022-08-14T05:24:51.296Z,90.34
2022-08-14T05:27:23.004Z,90.07
2022-08-14T05:29:52.994Z,90.43
2022-08-14T05:32:20.434Z,89.77
2022-08-14T05:34:47.957Z,89.03
2022-08-14T05:37:15.451Z,88.84
2022-08-14T05:39:43.677Z,87.38
2022-08-14T05:42:22.268Z,87.30
2022-08-14T05:44:55.428Z,86.66
2022-08-14T05:47:23.812Z,85.67
2022-08-14T05:49:51.676Z,84.90
2022-08-14T05:52:26.360Z,84.80
2022-08-14T05:55:08.464Z,84.65
2022-08-14T05:57:48.987Z,83.93
2022-08-14T06:00:24.362Z,83.55
2022-08-14T06:02:52.211Z,83.15
2022-08-14T06:05:23.389Z,83.42
2022-08-14T06:07:50.944Z,83.66
2022-08-14T06:10:19.043Z,83.06
2022-08-14T06:12:55.715Z,82.53
2022-08-14T06:15:29.687Z,81.28
2022-08-14T06:17:58.919Z,80.61
2022-08-14T06:20:28.611Z,80.71
2022-08-14T06:22:57.880Z,80.18
2022-08-14T06:25:27.022Z,79.57
2022-08-14T06:27:55.814Z,78.47
2022-08-14T06:30:30.458Z,77.48
2022-08-14T06:33:15.746Z,77.46
2022-08-14T06:35:43.781Z,76.79
2022-08-14T06:38:19.129Z,76.07
2022-08-14T06:40:47.727Z,75.48
2022-08-14T06:43:16.962Z,75.58
2022-08-14T06:45:50.231Z,74.74
2022-08-14T06:48:23.872Z,72.65
2022-08-14T06:50:53.890Z,71.69
2022-08-14T06:53:22.236Z,72.83
2022-08-14T06:56:00.754Z,71.22
2022-08-14T06:58:31.562Z,73.87
2022-08-14T07:01:25.019Z,72.32
2022-08-14T07:04:23.198Z,71.22
2022-08-14T07:06:54.803Z,69.97
2022-08-14T07:09:43.820Z,69.34
2022-08-14T07:12:52.034Z,67.94
2022-08-14T07:15:04.707Z,68.19
2022-08-14T07:17:34.483Z,69.01
2022-08-14T07:20:04.954Z,68.06
2022-08-14T07:22:50.125Z,66.97
2022-08-14T07:25:22.418Z,68.09
2022-08-14T07:28:00.675Z,67.81
2022-08-14T07:30:33.896Z,67.38
2022-08-14T07:33:03.503Z,67.29
2022-08-14T07:35:43.051Z,66.74
2022-08-14T07:38:21.484Z,66.32
2022-08-14T07:40:53.060Z,66.79
2022-08-14T07:43:21.736Z,65.09
2022-08-14T07:45:50.791Z,64.24
2022-08-14T07:48:18.011Z,64.81
2022-08-14T07:50:52.055Z,63.69
2022-08-14T07:53:19.753Z,64.09
2022-08-14T07:55:47.225Z,62.46
2022-08-14T07:58:38.808Z,64.24
2022-08-14T08:01:19.172Z,62.54
2022-08-14T08:03:47.771Z,62.95
2022-08-14T08:06:19.007Z,62.50
2022-08-14T08:09:01.087Z,62.24
2022-08-14T08:11:37.423Z,62.35
2022-08-14T08:14:10.820Z,60.27
2022-08-14T08:16:46.394Z,61.24
2022-08-14T08:19:14.337Z,60.86
2022-08-14T08:21:43.536Z,59.91
2022-08-14T08:24:11.160Z,60.27
2022-08-14T08:26:39.675Z,59.79
2022-08-14T08:29:07.931Z,59.08
2022-08-14T08:31:48.926Z,59.51
2022-08-14T08:34:20.791Z,58.93
2022-08-14T08:36:51.685Z,57.66
2022-08-14T08:39:21.880Z,57.46
2022-08-14T08:41:50.747Z,57.40
2022-08-14T08:44:31.649Z,57.50
2022-08-14T08:47:06.458Z,56.36
2022-08-14T08:49:48.302Z,56.91
2022-08-14T08:52:29.105Z,55.34
2022-08-14T08:55:00.732Z,55.38
2022-08-14T08:57:35.809Z,55.79
2022-08-14T09:00:25.393Z,56.22
2022-08-14T09:03:04.068Z,54.67
2022-08-14T09:05:33.341Z,54.48
2022-08-14T09:08:31.491Z,54.08
2022-08-14T09:11:19.233Z,54.72
2022-08-14T09:13:51.440Z,54.67
2022-08-14T09:16:21.160Z,53.60
2022-08-14T09:18:48.923Z,53.82
2022-08-14T09:21:16.475Z,53.88
2022-08-14T09:24:26.299Z,54.07
2022-08-14T09:26:32.584Z,53.40
2022-08-14T09:29:00.589Z,53.01
2022-08-14T09:31:42.529Z,52.81
2022-08-14T09:34:58.285Z,53.18
2022-08-14T09:38:00.153Z,51.98
2022-08-14T09:40:59.083Z,52.85
2022-08-14T09:43:51.196Z,51.70
2022-08-14T09:46:21.206Z,52.75
2022-08-14T09:48:58.835Z,51.60
2022-08-14T09:51:32.996Z,49.23
2022-08-14T09:54:18.400Z,48.92
2022-08-14T09:56:56.957Z,49.21
2022-08-14T09:59:28.425Z,49.18
2022-08-14T10:02:01.064Z,48.99
2022-08-14T10:04:34.624Z,48.96
2022-08-14T10:07:05.234Z,47.71
2022-08-14T10:09:34.615Z,47.59
2022-08-14T10:12:04.795Z,47.72
2022-08-14T10:14:36.648Z,47.39
2022-08-14T10:17:08.716Z,46.90
2022-08-14T10:19:48.087Z,46.42
2022-08-14T10:23:15.110Z,46.56
2022-08-14T10:25:14.120Z,46.78
2022-08-14T10:27:46.439Z,46.83
2022-08-14T10:30:22.407Z,45.81
2022-08-14T10:32:52.444Z,45.80
2022-08-14T10:35:23.059Z,45.62
2022-08-14T10:37:52.481Z,45.02
2022-08-14T10:40:43.434Z,44.66
2022-08-14T10:43:24.069Z,45.90
2022-08-14T10:46:59.058Z,46.07
2022-08-14T10:49:02.617Z,46.24
2022-08-14T10:51:35.300Z,46.38
2022-08-14T10:54:17.011Z,45.38
2022-08-14T10:56:57.224Z,45.75
2022-08-14T10:59:30.780Z,45.58
2022-08-14T11:02:03.381Z,44.95
2022-08-14T11:04:31.258Z,45.47
2022-08-14T11:06:59.172Z,45.60
2022-08-14T11:09:31.723Z,45.44
2022-08-14T11:12:33.103Z,45.89
2022-08-14T11:15:02.155Z,46.14
2022-08-14T11:17:36.031Z,46.13
2022-08-14T11:20:07.075Z,45.62
2022-08-14T11:22:56.320Z,46.06
2022-08-14T11:25:43.521Z,45.23
2022-08-14T11:28:19.053Z,44.65
2022-08-14T11:30:54.213Z,44.95
2022-08-14T11:33:24.453Z,45.11
2022-08-14T11:35:51.884Z,45.59
2022-08-14T11:38:21.621Z,44.16
2022-08-14T11:40:48.905Z,43.92
2022-08-14T11:43:16.339Z,41.73
2022-08-14T11:45:48.514Z,41.08
2022-08-14T11:49:02.294Z,40.61
2022-08-14T11:51:14.449Z,40.13
2022-08-14T11:53:51.353Z,38.73
2022-08-14T11:56:18.698Z,38.79
2022-08-14T11:58:54.057Z,38.80
2022-08-14T12:01:28.489Z,37.84
2022-08-14T12:04:00.999Z,38.10
2022-08-14T12:06:38.394Z,37.41
2022-08-14T12:09:08.264Z,37.34
2022-08-14T12:11:43.810Z,37.93
2022-08-14T12:14:31.039Z,38.12
2022-08-14T12:17:02.165Z,38.61
2022-08-14T12:19:33.574Z,38.88
2022-08-14T12:22:02.691Z,39.41
2022-08-14T12:24:36.353Z,39.58
2022-08-14T12:27:04.390Z,39.96
2022-08-14T12:29:31.899Z,40.68
2022-08-14T12:32:03.784Z,39.59
2022-08-14T12:34:35.163Z,39.91
2022-08-14T12:37:07.953Z,39.95
2022-08-14T12:39:39.855Z,39.62
2022-08-14T12:42:08.084Z,40.01
2022-08-14T12:44:38.342Z,40.47
2022-08-14T12:47:15.143Z,41.56
2022-08-14T12:49:53.427Z,40.12
2022-08-14T12:52:47.280Z,40.82
2022-08-14T12:55:32.687Z,40.64
2022-08-14T12:58:28.832Z,40.94
2022-08-14T13:01:17.271Z,41.08
2022-08-14T13:03:51.840Z,40.04
2022-08-14T13:06:20.366Z,40.17
2022-08-14T13:08:53.317Z,39.90
2022-08-14T13:11:23.915Z,39.99
2022-08-14T13:13:58.267Z,40.17
2022-08-14T13:16:37.989Z,39.78
2022-08-14T13:19:11.655Z,39.49
2022-08-14T13:22:05.334Z,38.75
2022-08-14T13:24:27.686Z,36.94
2022-08-14T13:26:58.368Z,37.20
2022-08-14T13:29:29.735Z,37.21
2022-08-14T13:31:58.708Z,37.49
2022-08-14T13:34:28.237Z,38.28
2022-08-14T13:36:59.397Z,38.16
2022-08-14T13:39:36.302Z,37.37
2022-08-14T13:42:13.242Z,36.35
2022-08-14T13:44:42.832Z,37.21
2022-08-14T13:47:12.046Z,36.71
2022-08-14T13:49:58.137Z,37.49
2022-08-14T13:52:59.116Z,37.11
2022-08-14T13:55:17.981Z,37.40
2022-08-14T13:57:49.548Z,37.29
2022-08-14T14:00:21.777Z,36.71
2022-08-14T14:03:00.405Z,37.48
2022-08-14T14:05:53.345Z,36.42
2022-08-14T14:08:19.123Z,36.63
2022-08-14T14:11:04.051Z,36.91
2022-08-14T14:13:32.005Z,36.82
2022-08-14T14:16:02.249Z,37.59
2022-08-14T14:18:34.878Z,36.68
2022-08-14T14:21:03.116Z,36.89
2022-08-14T14:23:31.143Z,36.21
2022-08-14T14:26:00.097Z,36.28
2022-08-14T14:28:34.233Z,34.95
2022-08-14T14:31:06.078Z,35.49
2022-08-14T14:33:47.092Z,34.76
2022-08-14T14:36:20.985Z,34.53
2022-08-14T14:39:01.130Z,34.96
2022-08-14T14:41:38.088Z,33.54
2022-08-14T14:44:13.530Z,34.22
2022-08-14T14:46:50.547Z,34.84
2022-08-14T14:49:21.865Z,35.58
2022-08-14T14:51:51.459Z,33.29
2022-08-14T14:54:30.313Z,32.18
2022-08-14T14:57:04.013Z,32.89
2022-08-14T14:59:37.452Z,32.61
2022-08-14T15:02:07.947Z,32.74
2022-08-14T15:04:37.977Z,33.64
2022-08-14T15:07:06.309Z,33.04
2022-08-14T15:09:34.115Z,32.96
2022-08-14T15:12:16.002Z,32.36
2022-08-14T15:14:54.948Z,33.14
2022-08-14T15:17:28.485Z,33.47
2022-08-14T15:20:07.693Z,32.88
2022-08-14T15:22:35.615Z,33.99
2022-08-14T15:25:03.093Z,33.34
2022-08-14T15:27:31.490Z,32.34
2022-08-14T15:29:59.430Z,31.77
2022-08-14T15:32:26.667Z,31.42
2022-08-14T15:34:57.894Z,31.23
2022-08-14T15:37:24.934Z,32.00
2022-08-14T15:40:00.455Z,32.45
2022-08-14T15:42:30.269Z,32.00
2022-08-14T15:45:01.267Z,30.95
2022-08-14T15:47:31.233Z,30.76
2022-08-14T15:50:01.009Z,31.27
2022-08-14T15:52:35.623Z,30.63
2022-08-14T15:55:07.957Z,29.59
2022-08-14T15:57:36.835Z,29.85
2022-08-14T16:00:40.608Z,29.45
2022-08-14T16:03:14.231Z,29.59
2022-08-14T16:05:46.027Z,28.75
2022-08-14T16:08:29.256Z,28.08
2022-08-14T16:11:03.800Z,28.19
2022-08-14T16:13:41.383Z,27.86
2022-08-14T16:16:47.218Z,26.54
2022-08-14T16:19:19.129Z,26.50
2022-08-14T16:22:02.164Z,25.98
2022-08-14T16:25:00.456Z,25.68
2022-08-14T16:27:37.051Z,24.56
2022-08-14T16:30:20.882Z,23.57
2022-08-14T16:32:55.774Z,24.75
2022-08-14T16:35:42.829Z,23.45
2022-08-14T16:38:19.702Z,23.59
2022-08-14T16:41:22.989Z,23.79
2022-08-14T16:43:54.016Z,24.60
2022-08-14T16:46:28.633Z,25.63
2022-08-14T16:48:58.744Z,27.34
2022-08-14T16:51:31.030Z,27.41
2022-08-14T16:54:34.591Z,28.32
2022-08-14T16:57:12.639Z,29.03
2022-08-14T16:59:52.304Z,28.74
2022-08-14T17:02:42.092Z,27.25
2022-08-14T17:05:26.851Z,28.38
2022-08-14T17:08:32.080Z,27.15
2022-08-14T17:11:11.922Z,28.75
2022-08-14T17:13:59.854Z,30.09
2022-08-14T17:16:37.550Z,30.81
2022-08-14T17:19:13.606Z,32.01
2022-08-14T17:21:47.407Z,33.24
2022-08-14T17:24:51.540Z,33.17
2022-08-14T17:27:07.250Z,33.35
2022-08-14T17:29:54.774Z,34.95
2022-08-14T17:32:29.750Z,34.13
2022-08-14T17:35:16.873Z,35.31
2022-08-14T17:37:46.183Z,33.90
2022-08-14T17:40:19.779Z,34.35
2022-08-14T17:42:51.613Z,35.48
2022-08-14T17:45:45.358Z,34.49
2022-08-14T17:49:14.753Z,34.90
2022-08-14T17:51:24.063Z,37.74
2022-08-14T17:54:02.363Z,36.60
2022-08-14T17:56:32.499Z,35.48
2022-08-14T17:59:05.633Z,37.55
2022-08-14T18:01:37.358Z,36.92
2022-08-14T18:04:24.524Z,37.74
2022-08-14T18:07:09.064Z,37.50
2022-08-14T18:09:58.769Z,38.90
2022-08-14T18:12:36.865Z,38.12
2022-08-14T18:15:17.479Z,38.55
2022-08-14T18:17:52.703Z,38.36
2022-08-14T18:21:24.306Z,39.59
2022-08-14T18:23:13.745Z,40.22
2022-08-14T18:25:48.229Z,40.24
2022-08-14T18:28:51.022Z,40.68
2022-08-14T18:31:21.299Z,41.49
2022-08-14T18:34:05.923Z,41.80
2022-08-14T18:36:57.033Z,42.45
2022-08-14T18:39:30.052Z,42.91
2022-08-14T18:42:23.664Z,42.84
2022-08-14T18:44:52.699Z,43.66
2022-08-14T18:47:24.261Z,44.14
2022-08-14T18:50:00.904Z,43.91
2022-08-14T18:52:39.608Z,43.10
2022-08-14T18:55:15.875Z,43.59
2022-08-14T18:57:57.980Z,43.08
2022-08-14T19:00:32.072Z,44.53
2022-08-14T19:03:04.220Z,44.22
2022-08-14T19:05:37.355Z,44.57
2022-08-14T19:08:21.982Z,44.78
2022-08-14T19:11:04.230Z,44.86
2022-08-14T19:13:48.685Z,45.74
2022-08-14T19:16:23.594Z,45.78
2022-08-14T19:19:00.581Z,46.02
2022-08-14T19:21:43.545Z,46.51
2022-08-14T19:24:27.777Z,46.55
2022-08-14T19:27:16.721Z,46.65
2022-08-14T19:29:47.884Z,47.41
2022-08-14T19:32:38.945Z,47.83
2022-08-14T19:35:49.982Z,48.35
2022-08-14T19:38:47.922Z,48.80
2022-08-14T19:41:17.760Z,49.25
2022-08-14T19:43:55.276Z,49.52
2022-08-14T19:46:39.196Z,49.20
2022-08-14T19:49:23.360Z,50.07
2022-08-14T19:52:04.443Z,50.75
2022-08-14T19:54:44.829Z,51.11
2022-08-14T19:57:30.182Z,50.81
2022-08-14T20:00:28.255Z,51.87
2022-08-14T20:03:13.522Z,51.55
2022-08-14T20:05:46.813Z,51.70
2022-08-14T20:10:59.612Z,51.01
2022-08-14T20:11:19.108Z,50.67
2022-08-14T20:14:23.695Z,51.64
2022-08-14T20:17:06.092Z,52.19
2022-08-14T20:19:37.298Z,52.53
2022-08-14T20:22:35.403Z,52.47
2022-08-14T20:25:10.980Z,52.51
2022-08-14T20:27:40.828Z,51.97
2022-08-14T20:30:29.569Z,52.47
2022-08-14T20:33:11.052Z,52.91
2022-08-14T20:35:38.577Z,52.87
2022-08-14T20:38:29.517Z,52.38
2022-08-14T20:41:06.866Z,53.57
2022-08-14T20:43:58.604Z,54.04
2022-08-14T20:46:33.649Z,54.07
2022-08-14T20:49:16.035Z,54.89
2022-08-14T20:51:58.690Z,53.92
2022-08-14T20:54:34.736Z,53.32
2022-08-14T20:57:09.302Z,53.36
2022-08-14T20:59:45.509Z,54.00
2022-08-14T21:02:34.550Z,53.70
2022-08-14T21:05:16.489Z,53.89
2022-08-14T21:07:50.702Z,54.72
2022-08-14T21:10:36.100Z,55.94
2022-08-14T21:14:17.804Z,55.96
2022-08-14T21:16:03.372Z,55.83
2022-08-14T21:18:34.898Z,56.62
2022-08-14T21:21:07.597Z,57.42
2022-08-14T21:23:53.738Z,57.80
2022-08-14T21:26:52.724Z,57.58
2022-08-14T21:29:13.424Z,58.36
2022-08-14T21:31:41.587Z,58.23
2022-08-14T21:34:27.084Z,58.69
2022-08-14T21:36:58.801Z,59.18
2022-08-14T21:39:25.848Z,58.81
2022-08-14T21:41:58.825Z,59.31
2022-08-14T21:44:42.962Z,59.31
2022-08-14T21:47:12.945Z,59.23
2022-08-14T21:49:43.150Z,59.15
2022-08-14T21:52:49.890Z,59.73
2022-08-14T21:55:10.457Z,60.24
2022-08-14T21:58:03.803Z,61.13
2022-08-14T22:00:37.440Z,60.58
2022-08-14T22:03:10.729Z,60.96
2022-08-14T22:05:39.323Z,61.50
2022-08-14T22:08:12.100Z,61.26
2022-08-14T22:10:46.699Z,61.17
2022-08-14T22:13:16.959Z,61.17
2022-08-14T22:15:49.625Z,61.26
2022-08-14T22:18:21.179Z,61.15
2022-08-14T22:20:53.617Z,61.35
2022-08-14T22:23:23.113Z,62.51
2022-08-14T22:25:51.190Z,63.07
2022-08-14T22:28:25.561Z,64.01
2022-08-14T22:30:55.138Z,64.26
2022-08-14T22:33:31.161Z,65.08
2022-08-14T22:36:00.761Z,64.54
2022-08-14T22:38:37.740Z,64.45
2022-08-14T22:41:25.275Z,64.56
2022-08-14T22:43:59.081Z,64.54
2022-08-14T22:46:27.122Z,65.15
2022-08-14T22:48:55.513Z,65.30
2022-08-14T22:51:26.042Z,66.00
2022-08-14T22:53:58.186Z,66.58
2022-08-14T22:56:30.103Z,66.87
2022-08-14T22:59:00.326Z,66.92
2022-08-14T23:01:57.024Z,67.30
2022-08-14T23:04:35.060Z,66.63
2022-08-14T23:07:22.529Z,66.42
2022-08-14T23:09:57.521Z,66.92
2022-08-14T23:12:29.715Z,66.59
2022-08-14T23:14:59.251Z,66.63
2022-08-14T23:17:39.102Z,66.18
2022-08-14T23:20:19.223Z,65.91
2022-08-14T23:22:50.483Z,65.98
2022-08-14T23:25:50.014Z,66.75
2022-08-14T23:28:34.881Z,67.01
2022-08-14T23:30:55.582Z,66.76
2022-08-14T23:33:22.616Z,67.16
2022-08-14T23:35:59.469Z,67.71
2022-08-14T23:38:30.925Z,67.87
2022-08-14T23:41:00.820Z,67.67
2022-08-14T23:43:31.212Z,68.37
2022-08-14T23:45:58.849Z,68.34
2022-08-14T23:48:28.308Z,69.11
2022-08-14T23:50:56.252Z,68.84
2022-08-14T23:53:47.471Z,69.12
2022-08-14T23:56:31.760Z,69.18
2022-08-14T23:59:01.682Z,69.08
